Dati meteorologici dell'aviazione (METAR)     LIEE Cagliari Elmas Airport
Temperatura
9°C Temperatura
4°C Punto di rugiada
71% Umidità



Vento
8 KM/O
5 MPH
2 M/S
4 KTS



320°
NO
Condizioni attuali

Chiaro Chiaro
Pressione 1022.92 (hPa) - 30.21 (inHg)
Visibilità 6.2 (miglio) - 10 (km)
Aeroporto
Codice-Aeroporto LIEE

Posizione: Cagliari Elmas Airport
Distanza: 14 (km)

Metar:
LIEE 301720Z 32004KT CAVOK 09/04 Q1023

Ore: 30-11-2021 18:20 CET